Time;durP1;ratioP1;P1;durP2;ratioP2;P2;SDS_P1;SDS_P2;PMS_P1;PMS_P2;Temp;Humidity;BMP_temperature;BMP_pressure;BME280_temperature;BME280_humidity;BME280_pressure;Samples;Min_cycle;Max_cycle;Signal;HPM_P1;HPM_P2
2022/07/22 00:01:42;;;;;;;5.22;1.52;;;15.80;99.90;;;;;;5113040;28;20086;-72
2022/07/22 00:04:08;;;;;;;5.53;1.58;;;15.80;99.90;;;;;;5113666;28;20039;-70
2022/07/22 00:06:33;;;;;;;3.28;1.40;;;15.80;99.90;;;;;;5112332;28;20141;-70
2022/07/22 00:08:59;;;;;;;4.78;1.58;;;15.80;99.90;;;;;;5114030;28;20042;-71
2022/07/22 00:11:25;;;;;;;5.90;1.52;;;15.80;99.90;;;;;;5114363;28;20038;-71
2022/07/22 00:13:50;;;;;;;4.10;1.30;;;15.80;99.90;;;;;;5111404;28;20113;-71
2022/07/22 00:16:16;;;;;;;4.10;1.40;;;15.90;99.90;;;;;;5113795;28;20094;-71
2022/07/22 00:18:42;;;;;;;5.80;1.58;;;15.90;99.90;;;;;;5112146;28;20039;-72
2022/07/22 00:21:08;;;;;;;7.57;1.65;;;15.80;99.90;;;;;;5112645;28;20498;-71
2022/07/22 00:23:34;;;;;;;4.53;1.63;;;15.80;99.90;;;;;;5113664;28;20039;-71
2022/07/22 00:25:59;;;;;;;6.15;1.63;;;15.80;99.90;;;;;;5113643;28;20553;-71
2022/07/22 00:28:25;;;;;;;4.75;1.25;;;15.90;99.90;;;;;;5113192;28;20046;-71
2022/07/22 00:30:51;;;;;;;4.90;1.40;;;15.80;99.90;;;;;;5112821;28;20042;-71
2022/07/22 00:33:16;;;;;;;4.82;1.52;;;15.90;99.90;;;;;;5111302;28;20039;-71
2022/07/22 00:35:42;;;;;;;6.47;1.88;;;15.90;99.90;;;;;;5113060;28;20040;-71
2022/07/22 00:38:08;;;;;;;5.60;1.80;;;15.90;99.90;;;;;;5113415;28;20067;-71
2022/07/22 00:40:33;;;;;;;4.55;1.55;;;15.90;99.90;;;;;;5107634;28;20130;-71
2022/07/22 00:43:00;;;;;;;5.32;1.40;;;15.80;99.90;;;;;;5113225;28;20054;-71
2022/07/22 00:45:26;;;;;;;4.65;1.60;;;15.80;99.90;;;;;;5112727;28;20139;-71
2022/07/22 00:47:51;;;;;;;5.28;1.60;;;15.80;99.90;;;;;;5105204;28;20126;-70
2022/07/22 00:50:19;;;;;;;4.22;1.60;;;15.80;99.90;;;;;;5112991;28;20031;-71
2022/07/22 00:52:45;;;;;;;5.25;2.00;;;15.80;99.90;;;;;;5113473;28;20079;-71
2022/07/22 00:55:11;;;;;;;6.43;1.88;;;15.80;99.90;;;;;;5112371;28;20035;-71
2022/07/22 00:57:37;;;;;;;5.47;1.80;;;15.90;99.90;;;;;;5110067;28;20097;-70
2022/07/22 01:00:06;;;;;;;6.05;1.90;;;15.80;99.90;;;;;;5111565;28;20562;-70
2022/07/22 01:02:31;;;;;;;5.03;1.90;;;15.80;99.90;;;;;;5108793;28;20039;-70
2022/07/22 01:04:57;;;;;;;4.90;1.90;;;15.80;99.90;;;;;;5112756;28;20035;-70
2022/07/22 01:07:22;;;;;;;4.88;2.03;;;15.80;99.90;;;;;;5111936;28;20037;-71
2022/07/22 01:09:48;;;;;;;5.88;1.80;;;15.70;99.90;;;;;;5112595;28;20449;-70
2022/07/22 01:12:14;;;;;;;7.28;1.88;;;15.70;99.90;;;;;;5111342;28;20051;-71
2022/07/22 01:14:39;;;;;;;9.32;2.05;;;15.70;99.90;;;;;;5113122;28;20075;-71
2022/07/22 01:17:05;;;;;;;4.00;1.48;;;15.70;99.90;;;;;;5111622;28;20044;-71
2022/07/22 01:19:31;;;;;;;3.92;1.83;;;15.70;99.90;;;;;;5112735;28;20048;-71
2022/07/22 01:21:56;;;;;;;4.22;1.40;;;15.70;99.90;;;;;;5107207;28;20122;-71
2022/07/22 01:24:22;;;;;;;4.97;1.65;;;15.60;99.90;;;;;;5110973;28;20043;-71
2022/07/22 01:26:48;;;;;;;3.90;1.55;;;15.60;99.90;;;;;;5112480;28;20031;-71
2022/07/22 01:29:13;;;;;;;4.40;1.67;;;15.60;99.90;;;;;;5112730;28;20559;-71
2022/07/22 01:31:39;;;;;;;4.28;1.77;;;15.60;99.90;;;;;;5112583;28;20039;-71
2022/07/22 01:34:04;;;;;;;4.78;1.90;;;15.60;99.90;;;;;;5107883;28;20040;-74
2022/07/22 01:36:30;;;;;;;6.32;1.77;;;15.60;99.90;;;;;;5112297;28;20031;-72
2022/07/22 01:38:56;;;;;;;4.65;2.03;;;15.50;99.90;;;;;;5112298;28;20166;-70
2022/07/22 01:41:22;;;;;;;3.33;1.67;;;15.60;99.90;;;;;;5112923;28;20040;-70
2022/07/22 01:43:48;;;;;;;4.68;1.70;;;15.60;99.90;;;;;;5111440;28;20447;-70
2022/07/22 01:46:13;;;;;;;4.55;1.75;;;15.60;99.90;;;;;;5112676;28;20051;-69
2022/07/22 01:48:40;;;;;;;5.00;1.90;;;15.60;99.90;;;;;;5110848;28;20039;-70
2022/07/22 01:51:06;;;;;;;5.55;1.98;;;15.60;99.90;;;;;;5111555;28;20399;-70
2022/07/22 01:53:32;;;;;;;5.90;1.50;;;15.60;99.90;;;;;;5110989;28;20039;-70
2022/07/22 01:55:57;;;;;;;5.38;2.00;;;15.60;99.90;;;;;;5112147;27;20034;-71
2022/07/22 01:58:23;;;;;;;3.88;1.92;;;15.60;99.90;;;;;;5111603;28;20946;-72
2022/07/22 02:00:49;;;;;;;4.53;1.45;;;15.60;99.90;;;;;;5111016;28;20039;-71
2022/07/22 02:03:15;;;;;;;4.18;1.92;;;15.60;99.90;;;;;;5111019;28;20044;-71
2022/07/22 02:05:41;;;;;;;4.53;1.67;;;15.60;99.90;;;;;;5111615;28;20481;-72
2022/07/22 02:08:09;;;;;;;5.40;1.77;;;15.70;99.90;;;;;;5112167;28;20034;-72
2022/07/22 02:10:36;;;;;;;8.82;2.10;;;15.70;99.90;;;;;;5111256;28;20050;-71
2022/07/22 02:13:03;;;;;;;5.25;1.80;;;15.60;99.90;;;;;;5109826;28;20035;-71
2022/07/22 02:15:28;;;;;;;5.13;1.70;;;15.60;99.90;;;;;;5112432;28;20032;-71
2022/07/22 02:17:55;;;;;;;2.25;1.40;;;15.60;99.90;;;;;;5111656;28;20201;-71
2022/07/22 02:20:21;;;;;;;4.30;1.77;;;15.60;99.90;;;;;;5111442;28;20043;-71
2022/07/22 02:22:46;;;;;;;5.22;1.58;;;15.60;99.90;;;;;;5107947;28;20494;-71
2022/07/22 02:25:12;;;;;;;5.93;1.42;;;15.60;99.90;;;;;;5110749;28;20127;-71
2022/07/22 02:27:39;;;;;;;3.85;1.30;;;15.60;99.90;;;;;;5111037;28;20410;-71
2022/07/22 02:30:05;;;;;;;3.65;1.73;;;15.70;99.90;;;;;;5112002;28;20059;-71
2022/07/22 02:32:31;;;;;;;3.67;1.40;;;15.50;99.90;;;;;;5110981;28;20479;-72
2022/07/22 02:34:57;;;;;;;3.97;1.40;;;15.60;99.90;;;;;;5110926;28;20035;-72
2022/07/22 02:37:22;;;;;;;3.03;1.23;;;15.50;99.90;;;;;;5112049;28;20035;-72
2022/07/22 02:39:48;;;;;;;5.80;1.50;;;15.50;99.90;;;;;;5110768;28;20142;-71
2022/07/22 02:42:13;;;;;;;2.55;1.25;;;15.50;99.90;;;;;;5112151;28;20062;-71
2022/07/22 02:44:39;;;;;;;4.03;1.40;;;15.50;99.90;;;;;;5112024;28;20111;-71
2022/07/22 02:47:05;;;;;;;5.07;1.50;;;15.50;99.90;;;;;;5110714;28;20044;-72
2022/07/22 02:49:31;;;;;;;4.10;1.40;;;15.50;99.90;;;;;;5110765;28;20525;-72
2022/07/22 02:51:56;;;;;;;4.78;1.40;;;15.50;99.90;;;;;;5111236;28;20043;-71
2022/07/22 02:54:22;;;;;;;4.57;1.40;;;15.50;99.90;;;;;;5111196;28;20054;-72
2022/07/22 02:56:47;;;;;;;4.72;1.33;;;15.50;99.90;;;;;;5110180;28;20441;-71
2022/07/22 02:59:13;;;;;;;4.35;1.63;;;15.50;99.90;;;;;;5110532;28;20119;-71
2022/07/22 03:01:38;;;;;;;3.03;1.38;;;15.50;99.90;;;;;;5113331;28;20517;-72
2022/07/22 03:04:04;;;;;;;3.92;1.52;;;15.60;99.90;;;;;;5113998;28;20047;-72
2022/07/22 03:06:30;;;;;;;5.10;1.75;;;15.50;99.90;;;;;;5115732;28;20059;-71
2022/07/22 03:08:55;;;;;;;5.53;1.40;;;15.50;99.90;;;;;;5113543;28;20047;-72
2022/07/22 03:11:21;;;;;;;3.85;1.52;;;15.50;99.90;;;;;;5115674;28;20043;-72
2022/07/22 03:13:47;;;;;;;3.08;1.50;;;15.50;99.90;;;;;;5114199;28;20123;-72
2022/07/22 03:16:12;;;;;;;5.68;1.80;;;15.50;99.90;;;;;;5113371;28;20039;-71
2022/07/22 03:18:38;;;;;;;5.18;1.60;;;15.60;99.90;;;;;;5115369;28;20070;-71
2022/07/22 03:21:04;;;;;;;6.70;1.67;;;15.50;99.90;;;;;;5115346;28;20463;-71
2022/07/22 03:23:29;;;;;;;5.25;1.60;;;15.50;99.90;;;;;;5114327;28;20032;-71
2022/07/22 03:25:56;;;;;;;4.72;1.60;;;15.50;99.90;;;;;;5114850;28;20039;-70
2022/07/22 03:28:22;;;;;;;4.40;1.65;;;15.50;99.90;;;;;;5114504;28;20036;-71
2022/07/22 03:30:47;;;;;;;7.72;1.77;;;15.50;99.90;;;;;;5114482;28;20043;-71
2022/07/22 03:33:13;;;;;;;4.90;1.50;;;15.50;99.90;;;;;;5114900;28;20035;-71
2022/07/22 03:35:39;;;;;;;4.13;1.50;;;15.60;99.90;;;;;;5114828;28;20128;-71
2022/07/22 03:38:04;;;;;;;6.13;1.67;;;15.60;99.90;;;;;;5113928;28;20042;-72
2022/07/22 03:40:30;;;;;;;4.55;1.38;;;15.50;99.90;;;;;;5113549;28;20126;-71
2022/07/22 03:42:55;;;;;;;5.20;1.60;;;15.50;99.90;;;;;;5114527;28;20045;-72
2022/07/22 03:45:21;;;;;;;4.25;1.23;;;15.50;99.90;;;;;;5112710;28;20085;-71
2022/07/22 03:47:47;;;;;;;6.03;1.45;;;15.50;99.90;;;;;;5113436;28;20053;-70
2022/07/22 03:50:12;;;;;;;5.22;1.60;;;15.50;99.90;;;;;;5113554;28;20040;-71
2022/07/22 03:52:38;;;;;;;3.45;1.30;;;15.50;99.90;;;;;;5113450;28;20071;-71
2022/07/22 03:55:05;;;;;;;2.83;1.40;;;15.50;99.90;;;;;;5113116;28;20048;-71
2022/07/22 03:57:30;;;;;;;3.97;1.33;;;15.50;99.90;;;;;;5109860;28;20429;-71
2022/07/22 03:59:56;;;;;;;4.13;1.27;;;15.50;99.90;;;;;;5112806;28;20048;-71
2022/07/22 04:02:21;;;;;;;4.43;1.85;;;15.70;99.90;;;;;;5114163;28;20096;-71
2022/07/22 04:04:47;;;;;;;4.32;1.30;;;15.50;99.90;;;;;;5113596;28;20046;-71
2022/07/22 04:07:13;;;;;;;3.92;1.48;;;15.50;99.90;;;;;;5114329;28;20486;-71
2022/07/22 04:09:38;;;;;;;3.95;1.40;;;15.40;99.90;;;;;;5113150;28;20043;-71
2022/07/22 04:12:04;;;;;;;5.07;1.52;;;15.40;99.90;;;;;;5111589;28;20075;-71
2022/07/22 04:14:30;;;;;;;4.88;1.35;;;15.50;99.90;;;;;;5113058;28;20046;-71
2022/07/22 04:16:56;;;;;;;4.30;1.42;;;15.50;99.90;;;;;;5112697;28;20414;-71
2022/07/22 04:19:21;;;;;;;4.10;1.45;;;15.50;99.90;;;;;;5111714;28;20052;-71
2022/07/22 04:21:47;;;;;;;3.97;1.40;;;15.50;99.90;;;;;;5112792;28;20100;-75
2022/07/22 04:24:13;;;;;;;3.22;1.45;;;15.50;99.90;;;;;;5112894;28;20032;-77
2022/07/22 04:26:38;;;;;;;3.28;1.50;;;15.50;99.90;;;;;;5112347;28;20490;-76
2022/07/22 04:29:05;;;;;;;3.42;1.17;;;15.50;99.90;;;;;;5113492;28;20172;-76
2022/07/22 04:31:31;;;;;;;3.35;1.10;;;15.50;99.90;;;;;;5113844;28;20044;-77
2022/07/22 04:33:58;;;;;;;3.50;1.48;;;15.50;99.90;;;;;;5111251;28;20044;-76
2022/07/22 04:36:23;;;;;;;4.80;1.52;;;15.60;99.90;;;;;;5111810;28;20046;-77
2022/07/22 04:38:49;;;;;;;3.92;1.40;;;15.60;99.90;;;;;;5113130;28;20044;-77
2022/07/22 04:41:15;;;;;;;4.13;1.60;;;15.60;99.90;;;;;;5112585;28;20039;-77
2022/07/22 04:43:40;;;;;;;2.40;1.27;;;15.60;99.90;;;;;;5113609;28;20101;-77
2022/07/22 04:46:06;;;;;;;3.70;1.40;;;15.70;99.90;;;;;;5113398;28;20036;-75
2022/07/22 04:48:32;;;;;;;2.83;1.30;;;15.70;99.90;;;;;;5112574;28;20529;-75
2022/07/22 04:51:01;;;;;;;4.53;1.70;;;15.70;99.90;;;;;;5113172;28;20028;-75
2022/07/22 04:53:27;;;;;;;2.90;1.35;;;15.70;99.90;;;;;;5112420;28;20027;-75
2022/07/22 04:55:53;;;;;;;3.72;1.50;;;15.80;99.90;;;;;;5113363;28;20073;-75
2022/07/22 04:58:19;;;;;;;6.68;2.05;;;15.80;99.90;;;;;;5113132;28;20403;-75
2022/07/22 05:00:46;;;;;;;4.35;2.08;;;15.80;99.90;;;;;;5112739;28;20056;-75
2022/07/22 05:03:13;;;;;;;7.60;2.05;;;15.90;99.90;;;;;;5111426;28;20048;-75
2022/07/22 05:05:39;;;;;;;5.85;1.80;;;15.90;99.90;;;;;;5112841;28;20088;-75
2022/07/22 05:08:04;;;;;;;4.70;1.45;;;16.00;99.90;;;;;;5111696;28;20047;-76
2022/07/22 05:10:30;;;;;;;4.90;1.70;;;16.00;99.90;;;;;;5112816;28;20044;-76
2022/07/22 05:12:55;;;;;;;3.72;1.50;;;16.00;99.90;;;;;;5110895;28;20400;-76
2022/07/22 05:15:21;;;;;;;4.20;1.52;;;16.10;99.90;;;;;;5111709;28;20036;-76
2022/07/22 05:17:47;;;;;;;4.50;1.38;;;16.00;99.90;;;;;;5110571;28;20060;-75
2022/07/22 05:20:13;;;;;;;3.88;1.48;;;16.00;99.90;;;;;;5111729;28;20436;-75
2022/07/22 05:22:38;;;;;;;3.17;1.50;;;16.00;99.90;;;;;;5110945;28;20584;-75
2022/07/22 05:25:04;;;;;;;3.42;1.48;;;16.10;99.90;;;;;;5110064;28;20058;-75
2022/07/22 05:27:30;;;;;;;3.53;1.50;;;16.10;99.90;;;;;;5112420;28;20084;-75
2022/07/22 05:29:57;;;;;;;4.70;1.50;;;16.10;99.90;;;;;;5111817;28;20126;-75
2022/07/22 05:32:22;;;;;;;3.65;1.60;;;16.10;99.90;;;;;;5112053;28;20044;-75
2022/07/22 05:34:48;;;;;;;3.88;1.50;;;16.20;99.90;;;;;;5112133;28;20173;-76
2022/07/22 05:37:15;;;;;;;4.07;1.50;;;16.20;99.90;;;;;;5110004;28;20465;-75
2022/07/22 05:39:42;;;;;;;3.65;1.52;;;16.30;99.90;;;;;;5110976;28;20039;-75
2022/07/22 05:42:07;;;;;;;5.82;2.50;;;16.30;99.90;;;;;;5111254;28;20747;-75
2022/07/22 05:44:33;;;;;;;3.92;1.85;;;16.30;99.90;;;;;;5109727;28;20096;-75
2022/07/22 05:46:59;;;;;;;5.95;1.80;;;16.40;99.90;;;;;;5111919;28;20411;-75
2022/07/22 05:49:26;;;;;;;4.07;2.10;;;16.50;99.90;;;;;;5111757;28;20039;-76
2022/07/22 05:51:52;;;;;;;3.75;1.67;;;16.40;99.90;;;;;;5110131;28;20126;-76
2022/07/22 05:54:18;;;;;;;5.53;1.67;;;16.50;99.90;;;;;;5112455;28;20123;-76
2022/07/22 05:56:44;;;;;;;5.72;1.65;;;16.50;99.90;;;;;;5110722;28;20039;-76
2022/07/22 05:59:09;;;;;;;3.42;1.30;;;16.60;99.90;;;;;;5110514;28;20415;-76
2022/07/22 06:01:35;;;;;;;3.75;1.48;;;16.60;99.90;;;;;;5112357;28;20039;-75
2022/07/22 06:04:00;;;;;;;3.08;1.30;;;16.60;99.90;;;;;;5109805;28;20086;-75
2022/07/22 06:06:26;;;;;;;3.13;1.50;;;16.60;99.90;;;;;;5112667;28;20048;-76
2022/07/22 06:08:52;;;;;;;2.60;1.00;;;16.70;99.90;;;;;;5111813;28;20063;-76
2022/07/22 06:11:17;;;;;;;3.60;1.20;;;16.70;99.90;;;;;;5111386;28;20104;-76
2022/07/22 06:13:43;;;;;;;3.55;1.42;;;16.90;99.90;;;;;;5111343;28;20039;-76
2022/07/22 06:16:08;;;;;;;5.00;1.50;;;16.80;99.90;;;;;;5111837;28;20089;-76
2022/07/22 06:18:34;;;;;;;5.28;1.42;;;16.90;99.90;;;;;;5110976;28;20086;-77
2022/07/22 06:20:59;;;;;;;4.57;1.63;;;17.10;99.90;;;;;;5111816;28;20507;-77
2022/07/22 06:23:25;;;;;;;2.97;1.20;;;17.00;99.90;;;;;;5112044;28;20077;-77
2022/07/22 06:25:50;;;;;;;3.40;1.30;;;17.10;99.90;;;;;;5109589;28;20403;-76
2022/07/22 06:28:16;;;;;;;3.80;1.38;;;17.20;99.90;;;;;;5110849;28;20044;-76
2022/07/22 06:30:42;;;;;;;4.47;1.08;;;17.20;99.90;;;;;;5111895;28;20502;-77
2022/07/22 06:33:08;;;;;;;3.80;1.33;;;17.20;99.90;;;;;;5110881;28;20036;-77
2022/07/22 06:35:34;;;;;;;3.65;1.30;;;17.30;99.90;;;;;;5113850;28;20046;-77
2022/07/22 06:37:59;;;;;;;3.50;1.10;;;17.30;99.90;;;;;;5115917;28;20039;-75
2022/07/22 06:40:25;;;;;;;3.33;1.50;;;17.40;99.90;;;;;;5115518;28;20036;-77
2022/07/22 06:42:50;;;;;;;4.05;1.02;;;17.40;99.90;;;;;;5114588;28;20040;-76
2022/07/22 06:45:16;;;;;;;2.53;1.00;;;17.30;99.90;;;;;;5115563;28;20047;-76
2022/07/22 06:47:41;;;;;;;3.50;1.05;;;17.30;99.90;;;;;;5115419;28;20031;-77
2022/07/22 06:50:09;;;;;;;3.92;1.20;;;17.30;99.90;;;;;;5114726;28;20040;-77
2022/07/22 06:52:38;;;;;;;4.60;1.10;;;17.20;99.90;;;;;;5115025;28;20048;-76
2022/07/22 06:55:04;;;;;;;3.70;1.10;;;17.30;99.90;;;;;;5111165;28;20080;-76
2022/07/22 06:57:30;;;;;;;5.50;1.50;;;17.30;99.90;;;;;;5115559;28;20486;-78
2022/07/22 06:59:55;;;;;;;3.97;1.27;;;17.30;99.90;;;;;;5113550;28;20122;-78
2022/07/22 07:02:21;;;;;;;1.92;0.88;;;17.30;99.90;;;;;;5115332;28;20437;-78
2022/07/22 07:04:46;;;;;;;5.22;1.30;;;17.40;99.90;;;;;;5114305;28;20054;-77
2022/07/22 07:07:12;;;;;;;2.65;1.10;;;17.70;99.90;;;;;;5113834;28;20039;-78
2022/07/22 07:09:38;;;;;;;32.30;7.13;;;17.50;99.90;;;;;;5113403;28;20040;-77
2022/07/22 07:12:03;;;;;;;8.75;1.60;;;17.60;99.90;;;;;;5113048;28;20552;-78
2022/07/22 07:14:29;;;;;;;4.38;1.00;;;17.60;99.90;;;;;;5114843;28;20435;-78
2022/07/22 07:16:54;;;;;;;3.55;1.30;;;17.70;99.90;;;;;;5113832;28;20075;-79
2022/07/22 07:19:20;;;;;;;3.60;1.00;;;17.80;99.90;;;;;;5115038;28;20047;-78
2022/07/22 07:21:46;;;;;;;3.35;1.10;;;17.90;99.90;;;;;;5114354;28;20039;-76
2022/07/22 07:24:11;;;;;;;2.05;1.02;;;17.90;99.90;;;;;;5115139;28;20043;-78
2022/07/22 07:26:37;;;;;;;3.08;0.90;;;18.00;99.90;;;;;;5114294;28;20039;-79
2022/07/22 07:29:03;;;;;;;3.28;0.90;;;18.00;99.90;;;;;;5114220;27;20043;-79
2022/07/22 07:31:29;;;;;;;3.22;1.00;;;18.10;99.90;;;;;;5115250;28;20081;-78
2022/07/22 07:33:55;;;;;;;1.55;0.75;;;18.10;99.90;;;;;;5110530;28;20113;-78
2022/07/22 07:36:21;;;;;;;3.15;1.00;;;18.10;99.90;;;;;;5114497;28;20042;-77
2022/07/22 07:38:47;;;;;;;3.03;0.82;;;18.20;99.90;;;;;;5113936;28;20039;-77
2022/07/22 07:41:12;;;;;;;2.85;0.80;;;18.20;99.90;;;;;;5114842;27;20532;-78
2022/07/22 07:43:38;;;;;;;3.47;0.90;;;18.20;99.90;;;;;;5114294;28;20067;-76
2022/07/22 07:46:04;;;;;;;2.85;0.82;;;18.30;99.90;;;;;;5112855;28;20071;-78
2022/07/22 07:48:30;;;;;;;1.75;0.75;;;18.30;99.90;;;;;;5113702;28;20031;-77
2022/07/22 07:50:55;;;;;;;2.13;1.00;;;18.30;99.90;;;;;;5113701;28;20505;-77
2022/07/22 07:53:21;;;;;;;2.78;0.90;;;18.40;99.90;;;;;;5110632;28;20078;-77
2022/07/22 07:55:47;;;;;;;2.78;0.95;;;18.50;99.90;;;;;;5114580;28;20059;-78
2022/07/22 07:58:13;;;;;;;2.55;1.00;;;18.50;99.90;;;;;;5113300;28;20042;-77
2022/07/22 08:00:41;;;;;;;2.72;1.08;;;18.50;99.90;;;;;;5114649;28;20390;-78
2022/07/22 08:03:06;;;;;;;1.90;1.00;;;18.60;99.90;;;;;;5114310;28;20043;-77
2022/07/22 08:05:32;;;;;;;2.78;0.73;;;18.70;99.90;;;;;;5113893;28;20039;-77
2022/07/22 08:07:58;;;;;;;2.30;0.90;;;18.60;99.90;;;;;;5112817;28;20036;-77
2022/07/22 08:10:24;;;;;;;2.45;0.90;;;18.70;99.90;;;;;;5113946;28;20045;-77
2022/07/22 08:12:50;;;;;;;24.90;5.05;;;18.70;99.90;;;;;;5113881;28;20035;-76
2022/07/22 08:15:16;;;;;;;3.10;0.85;;;18.70;99.90;;;;;;5114026;28;20099;-77
2022/07/22 08:17:41;;;;;;;3.50;1.00;;;18.80;99.90;;;;;;5112205;28;21504;-78
2022/07/22 08:20:08;;;;;;;2.95;1.13;;;18.80;99.90;;;;;;5111926;28;20069;-79
2022/07/22 08:22:34;;;;;;;3.70;1.20;;;18.60;99.90;;;;;;5114568;28;20082;-78
2022/07/22 08:25:00;;;;;;;2.60;0.85;;;18.60;99.90;;;;;;5113014;28;20479;-79
2022/07/22 08:27:25;;;;;;;1.98;0.82;;;18.50;99.90;;;;;;5113010;28;20042;-77
2022/07/22 08:29:51;;;;;;;4.93;0.93;;;18.60;99.90;;;;;;5112485;28;20509;-78
2022/07/22 08:32:17;;;;;;;1.95;0.80;;;18.60;99.90;;;;;;5112302;28;20043;-86
2022/07/22 08:34:43;;;;;;;2.35;0.75;;;18.60;99.90;;;;;;5114821;28;20035;-80
2022/07/22 08:37:08;;;;;;;2.58;0.73;;;18.70;99.90;;;;;;5112435;28;20185;-80
2022/07/22 08:39:34;;;;;;;2.10;0.77;;;18.80;99.90;;;;;;5112732;28;20039;-78
2022/07/22 08:42:00;;;;;;;1.75;0.70;;;18.80;99.90;;;;;;5112973;28;20475;-82
2022/07/22 08:44:30;;;;;;;3.67;0.90;;;18.80;99.90;;;;;;5112270;28;20108;-82
2022/07/22 08:46:55;;;;;;;2.33;0.70;;;18.90;99.90;;;;;;5112547;28;20035;-76
2022/07/22 08:49:21;;;;;;;2.78;0.98;;;19.00;99.90;;;;;;5113954;28;20062;-82
2022/07/22 08:51:47;;;;;;;3.70;0.90;;;19.10;99.90;;;;;;5112278;28;20043;-78
2022/07/22 08:54:12;;;;;;;2.47;0.85;;;19.20;99.90;;;;;;5112669;28;20170;-84
2022/07/22 08:56:39;;;;;;;1.83;0.60;;;19.50;99.90;;;;;;5114049;28;20031;-90
2022/07/22 08:59:04;;;;;;;3.28;0.88;;;19.70;99.90;;;;;;5112241;28;20047;-78
2022/07/22 09:01:30;;;;;;;3.33;0.90;;;20.00;99.90;;;;;;5112771;28;20127;-86
2022/07/22 09:03:57;;;;;;;2.50;0.75;;;20.20;99.90;;;;;;5111220;28;20040;-82
2022/07/22 09:06:25;;;;;;;4.03;0.80;;;20.50;99.90;;;;;;5110976;28;20044;-83
2022/07/22 09:09:06;;;;;;;2.08;0.75;;;20.50;99.90;;;;;;5111390;28;20085;-83
2022/07/22 09:11:31;;;;;;;1.63;0.80;;;20.50;99.90;;;;;;5111721;28;20078;-81
2022/07/22 09:14:02;;;;;;;2.05;0.77;;;20.40;99.90;;;;;;5112650;28;20051;-92
2022/07/22 09:16:48;;;;;;;2.13;0.63;;;20.20;99.90;;;;;;5112937;28;20043;-87
2022/07/22 09:19:14;;;;;;;3.03;0.70;;;20.00;99.90;;;;;;5110191;28;20048;-80
2022/07/22 09:21:43;;;;;;;1.38;0.60;;;19.80;99.90;;;;;;5112957;28;20039;-81
2022/07/22 09:24:32;;;;;;;1.63;0.65;;;19.80;99.90;;;;;;5108265;28;20052;-76
2022/07/22 09:26:57;;;;;;;2.38;1.00;;;19.90;99.90;;;;;;5110961;28;20044;-81
2022/07/22 09:29:23;;;;;;;1.60;0.68;;;19.90;99.90;;;;;;5111774;28;20042;-87
2022/07/22 09:31:52;;;;;;;2.08;1.00;;;20.10;99.90;;;;;;5112985;28;20486;-80
2022/07/22 09:34:30;;;;;;;2.45;0.85;;;20.50;99.90;;;;;;5113034;28;20122;-81
2022/07/22 09:36:57;;;;;;;1.77;0.75;;;20.80;99.00;;;;;;5111759;28;20058;-85
2022/07/22 09:39:29;;;;;;;2.47;0.80;;;21.00;99.30;;;;;;5114185;27;20050;-87
2022/07/22 09:42:06;;;;;;;2.78;0.93;;;21.10;98.90;;;;;;5111888;28;20126;-86
2022/07/22 09:44:33;;;;;;;2.17;0.90;;;21.30;98.10;;;;;;5112191;28;20039;-81
2022/07/22 09:46:58;;;;;;;2.28;0.70;;;21.40;97.80;;;;;;5112001;28;20042;-83
2022/07/22 09:49:39;;;;;;;2.47;0.90;;;21.50;97.80;;;;;;5113267;28;20036;-79
2022/07/22 09:52:06;;;;;;;3.25;1.10;;;21.60;96.60;;;;;;5110271;28;20047;-76
2022/07/22 09:54:34;;;;;;;2.10;0.90;;;21.80;98.00;;;;;;5108812;28;20043;-75
2022/07/22 09:57:00;;;;;;;2.35;1.00;;;21.90;97.70;;;;;;5111873;28;20376;-75
2022/07/22 09:59:26;;;;;;;1.65;0.80;;;22.10;97.40;;;;;;5111353;28;20047;-76
2022/07/22 10:01:57;;;;;;;2.42;0.80;;;22.20;96.80;;;;;;5112697;28;20039;-81
2022/07/22 10:04:26;;;;;;;1.55;0.80;;;22.30;96.40;;;;;;5111555;28;20035;-83
2022/07/22 10:06:54;;;;;;;2.00;0.90;;;22.30;96.20;;;;;;5113848;28;20423;-80
2022/07/22 10:09:21;;;;;;;2.08;0.80;;;22.30;95.30;;;;;;5112132;28;20397;-75
2022/07/22 10:11:48;;;;;;;2.13;0.70;;;22.20;95.50;;;;;;5112183;28;20071;-76
2022/07/22 10:14:17;;;;;;;2.75;0.90;;;22.20;95.40;;;;;;5110979;28;20391;-76
2022/07/22 10:16:44;;;;;;;2.75;0.95;;;22.10;94.90;;;;;;5112285;28;20054;-76
2022/07/22 10:19:11;;;;;;;1.85;0.80;;;22.30;95.60;;;;;;5111378;28;20455;-75
2022/07/22 10:21:43;;;;;;;1.98;0.82;;;22.40;95.40;;;;;;5109037;28;20055;-76
2022/07/22 10:24:14;;;;;;;1.63;0.70;;;22.50;94.70;;;;;;5109949;28;20085;-74
2022/07/22 10:26:55;;;;;;;1.75;0.88;;;22.50;94.90;;;;;;5108617;28;20062;-74
2022/07/22 10:29:29;;;;;;;1.70;0.88;;;22.60;94.40;;;;;;5112200;28;20475;-73
2022/07/22 10:32:16;;;;;;;2.17;0.80;;;22.70;94.60;;;;;;5110209;28;20493;-74
2022/07/22 10:34:43;;;;;;;1.15;0.60;;;22.80;93.20;;;;;;5111954;28;20055;-74
2022/07/22 10:37:47;;;;;;;1.40;0.60;;;23.10;94.30;;;;;;5111705;28;20058;-74
2022/07/22 10:40:14;;;;;;;1.60;0.70;;;23.20;91.70;;;;;;5051690;28;20045;-73
2022/07/22 10:43:03;;;;;;;2.03;0.60;;;23.10;93.60;;;;;;5101094;28;20058;-73
2022/07/22 10:46:06;;;;;;;1.88;0.80;;;23.20;93.90;;;;;;5107562;28;20056;-74
2022/07/22 10:48:37;;;;;;;5.10;0.90;;;23.10;93.70;;;;;;5094516;28;20538;-73
2022/07/22 10:51:13;;;;;;;2.83;0.80;;;22.90;94.00;;;;;;5110242;28;20483;-74
2022/07/22 10:53:57;;;;;;;2.10;0.80;;;22.80;92.40;;;;;;5111634;28;20039;-75
2022/07/22 10:56:35;;;;;;;2.55;0.88;;;22.80;94.20;;;;;;5108107;28;20122;-74
2022/07/22 10:59:14;;;;;;;1.98;0.70;;;23.10;94.10;;;;;;5107814;28;20055;-75
2022/07/22 11:01:48;;;;;;;1.95;0.80;;;23.20;93.80;;;;;;5112131;28;20437;-75
2022/07/22 11:04:18;;;;;;;2.78;0.80;;;23.40;93.90;;;;;;5104265;28;20044;-74
2022/07/22 11:06:46;;;;;;;3.08;0.93;;;23.40;94.10;;;;;;5108789;28;20554;-74
2022/07/22 11:09:13;;;;;;;3.13;0.80;;;23.10;93.70;;;;;;5103765;28;20039;-75
2022/07/22 11:11:51;;;;;;;2.85;0.80;;;22.90;94.00;;;;;;5111518;28;20451;-75
2022/07/22 11:14:20;;;;;;;3.25;1.17;;;22.60;94.80;;;;;;5107332;28;20552;-75
2022/07/22 11:16:48;;;;;;;2.13;0.90;;;22.50;96.20;;;;;;5110312;28;20055;-76
2022/07/22 11:19:18;;;;;;;3.35;1.00;;;22.20;96.70;;;;;;5108062;28;20047;-75
2022/07/22 11:21:59;;;;;;;3.03;0.85;;;22.00;96.90;;;;;;5109654;28;20031;-80
2022/07/22 11:24:26;;;;;;;3.22;1.17;;;21.90;96.90;;;;;;5112490;28;20548;-77
2022/07/22 11:26:53;;;;;;;2.75;0.95;;;21.70;97.00;;;;;;5112429;28;20044;-77
2022/07/22 11:29:37;;;;;;;2.47;0.90;;;21.40;97.20;;;;;;5113592;28;20048;-75
2022/07/22 11:32:06;;;;;;;3.58;1.08;;;21.30;97.20;;;;;;5113126;28;20044;-78
2022/07/22 11:34:32;;;;;;;2.80;1.20;;;21.20;97.70;;;;;;5115383;28;20046;-79
2022/07/22 11:36:58;;;;;;;4.13;1.10;;;21.00;98.10;;;;;;5114295;28;20051;-79
2022/07/22 11:39:27;;;;;;;3.00;0.90;;;21.00;98.00;;;;;;5114398;28;20464;-78
2022/07/22 11:41:55;;;;;;;2.83;1.20;;;21.20;98.10;;;;;;5114949;28;20039;-76
2022/07/22 11:44:22;;;;;;;3.55;1.17;;;21.20;98.40;;;;;;5114045;28;20078;-76
2022/07/22 11:46:49;;;;;;;3.90;1.20;;;21.30;98.30;;;;;;5115439;28;20047;-75
2022/07/22 11:49:17;;;;;;;2.20;1.10;;;21.40;97.90;;;;;;5113407;28;20361;-77
2022/07/22 11:51:43;;;;;;;3.58;1.13;;;21.50;97.70;;;;;;5110576;28;20395;-76
2022/07/22 11:54:14;;;;;;;3.90;1.05;;;21.30;97.30;;;;;;5113387;28;20394;-76
2022/07/22 11:56:40;;;;;;;2.40;0.80;;;21.40;98.20;;;;;;5113854;28;20431;-74
2022/07/22 11:59:09;;;;;;;3.80;0.90;;;21.30;97.80;;;;;;5115102;28;20106;-75
2022/07/22 12:01:36;;;;;;;2.47;1.00;;;21.00;97.90;;;;;;5116153;28;20530;-74
2022/07/22 12:04:05;;;;;;;2.80;0.90;;;21.00;98.40;;;;;;5114164;28;20031;-76
2022/07/22 12:06:37;;;;;;;3.13;1.00;;;20.80;98.30;;;;;;5114011;28;20376;-75
2022/07/22 12:09:11;;;;;;;2.97;0.90;;;20.70;98.40;;;;;;5109300;28;20039;-76
2022/07/22 12:11:48;;;;;;;4.60;1.13;;;20.50;98.80;;;;;;5113484;28;20118;-72
2022/07/22 12:14:15;;;;;;;1.92;0.93;;;20.30;98.80;;;;;;5111746;28;20364;-75
2022/07/22 12:16:43;;;;;;;4.20;1.20;;;20.10;99.00;;;;;;5111194;28;20399;-72
2022/07/22 12:19:11;;;;;;;4.07;0.95;;;20.20;98.90;;;;;;5110638;28;20071;-72
2022/07/22 12:21:55;;;;;;;1.98;0.80;;;20.20;98.90;;;;;;5112881;28;20040;-74
2022/07/22 12:24:29;;;;;;;1.85;0.85;;;20.20;99.00;;;;;;5112031;28;20049;-74
2022/07/22 12:26:57;;;;;;;4.22;1.30;;;20.30;99.00;;;;;;5112987;28;20043;-74
2022/07/22 12:29:27;;;;;;;3.40;1.17;;;20.30;99.00;;;;;;5111532;28;20756;-74
2022/07/22 12:32:01;;;;;;;3.80;1.30;;;20.30;99.00;;;;;;5110990;28;20081;-73
2022/07/22 12:34:30;;;;;;;2.83;1.20;;;20.30;98.90;;;;;;5111172;28;20139;-74
2022/07/22 12:36:56;;;;;;;3.08;1.10;;;20.30;98.90;;;;;;5112837;28;20139;-73
2022/07/22 12:39:24;;;;;;;4.47;1.00;;;20.40;98.90;;;;;;5110903;28;20380;-73
2022/07/22 12:41:53;;;;;;;2.55;1.05;;;20.30;98.90;;;;;;5112487;28;20077;-73
2022/07/22 12:44:25;;;;;;;3.22;1.10;;;20.20;99.20;;;;;;5110903;28;20042;-72
2022/07/22 12:46:55;;;;;;;2.50;1.00;;;20.30;99.00;;;;;;5105907;28;20040;-75
2022/07/22 12:49:25;;;;;;;2.67;1.00;;;20.30;98.70;;;;;;5112793;28;20035;-75